Time;durP1;ratioP1;P1;durP2;ratioP2;P2;SDS_P1;SDS_P2;PMS_P1;PMS_P2;Temp;Humidity;BMP_temperature;BMP_pressure;BME280_temperature;BME280_humidity;BME280_pressure;Samples;Min_cycle;Max_cycle;Signal;HPM_P1;HPM_P2
2022/01/01 00:00:45;;;;;;;29.00;11.82;;;;;;;9.47;100.00;102019.53;5049445;28;20060;-78
2022/01/01 00:03:11;;;;;;;39.40;22.02;;;;;;;9.46;100.00;102012.56;5046121;28;20066;-78
2022/01/01 00:05:36;;;;;;;41.00;20.00;;;;;;;9.45;100.00;102010.91;5070365;28;20025;-78
2022/01/01 00:08:03;;;;;;;34.03;17.55;;;;;;;9.45;100.00;102010.91;5072686;28;20035;-78
2022/01/01 00:10:30;;;;;;;39.28;22.40;;;;;;;9.38;100.00;101980.69;5053398;28;20039;-78
2022/01/01 00:12:55;;;;;;;36.15;18.15;;;;;;;9.52;100.00;102000.75;5052874;28;20032;-78
2022/01/01 00:15:21;;;;;;;31.00;15.40;;;;;;;9.49;100.00;102006.22;5069239;28;20449;-78
2022/01/01 00:17:46;;;;;;;35.92;18.55;;;;;;;9.52;100.00;102021.00;5054214;28;20029;-78
2022/01/01 00:20:12;;;;;;;41.25;18.08;;;;;;;9.53;100.00;102022.66;5074388;28;20031;-78
2022/01/01 00:22:39;;;;;;;42.03;21.75;;;;;;;9.41;100.00;102009.44;5078309;28;20081;-78
2022/01/01 00:25:06;;;;;;;43.35;23.77;;;;;;;9.42;100.00;102012.91;5070862;28;20024;-78
2022/01/01 00:27:32;;;;;;;44.28;18.73;;;;;;;9.37;100.00;101994.81;5074098;28;20555;-78
2022/01/01 00:29:57;;;;;;;45.05;23.95;;;;;;;9.46;100.00;102017.00;5048987;28;20033;-78
2022/01/01 00:32:23;;;;;;;51.42;26.17;;;;;;;9.48;100.00;102021.22;5053970;28;20485;-78
2022/01/01 00:34:50;;;;;;;60.60;30.25;;;;;;;9.38;100.00;102014.09;5054274;28;20040;-78
2022/01/01 00:37:16;;;;;;;75.63;35.45;;;;;;;9.40;100.00;102028.00;5067865;28;20392;-78
2022/01/01 00:39:42;;;;;;;74.90;32.88;;;;;;;9.42;100.00;102032.19;5033781;28;20467;-78
2022/01/01 00:42:07;;;;;;;65.07;32.35;;;;;;;9.41;100.00;102027.91;5069898;28;20036;-78
2022/01/01 00:44:33;;;;;;;62.72;29.33;;;;;;;9.24;100.00;102009.84;5062966;28;20040;-78
2022/01/01 00:46:58;;;;;;;64.13;29.33;;;;;;;9.27;100.00;102012.25;5035490;28;20062;-78
2022/01/01 00:49:24;;;;;;;61.60;31.13;;;;;;;9.32;100.00;102015.41;5050767;28;20069;-78
2022/01/01 00:51:49;;;;;;;62.30;31.42;;;;;;;9.32;100.00;102027.72;5053547;28;20090;-78
2022/01/01 00:54:15;;;;;;;72.55;30.35;;;;;;;9.42;100.00;102042.75;5071715;28;20054;-78
2022/01/01 00:56:40;;;;;;;66.50;30.70;;;;;;;9.40;100.00;102043.81;5068942;28;20032;-78
2022/01/01 00:59:06;;;;;;;69.95;30.73;;;;;;;9.38;100.00;102045.72;5053574;28;20032;-79
2022/01/01 01:01:32;;;;;;;63.05;28.88;;;;;;;9.42;100.00;102053.28;5050313;28;20090;-79
2022/01/01 01:03:57;;;;;;;66.85;27.63;;;;;;;9.42;100.00;102060.34;5072598;28;20040;-79
2022/01/01 01:06:22;;;;;;;53.13;24.80;;;;;;;9.41;100.00;102048.97;5072994;28;20024;-77
2022/01/01 01:08:49;;;;;;;55.33;24.27;;;;;;;9.42;100.00;102052.44;5069084;28;20032;-77
2022/01/01 01:11:14;;;;;;;46.58;22.10;;;;;;;9.26;100.00;102031.66;5048337;28;20040;-77
2022/01/01 01:13:42;;;;;;;47.03;22.55;;;;;;;9.36;100.00;102048.47;5070188;28;20033;-77
2022/01/01 01:16:08;;;;;;;48.42;22.10;;;;;;;9.30;100.00;102042.78;5074091;28;20028;-77
2022/01/01 01:18:33;;;;;;;61.83;24.40;;;;;;;9.22;100.00;102040.75;5072879;28;20123;-77
2022/01/01 01:20:59;;;;;;;46.60;20.65;;;;;;;9.03;100.00;102022.78;5056275;28;20040;-79
2022/01/01 01:23:24;;;;;;;49.65;18.55;;;;;;;9.13;100.00;102052.78;5038744;28;20044;-77
2022/01/01 01:25:49;;;;;;;39.00;15.73;;;;;;;9.13;100.00;102051.94;5056305;28;20029;-79
2022/01/01 01:28:15;;;;;;;38.40;16.88;;;;;;;9.03;100.00;102031.53;5069139;28;20477;-79
2022/01/01 01:30:41;;;;;;;40.30;16.88;;;;;;;8.98;100.00;102028.38;5053285;28;20449;-79
2022/01/01 01:33:08;;;;;;;36.63;15.43;;;;;;;8.98;100.00;102032.81;5073351;28;20033;-79
2022/01/01 01:35:34;;;;;;;42.20;15.40;;;;;;;8.77;100.00;101998.34;5070314;28;20427;-79
2022/01/01 01:38:00;;;;;;;41.08;16.55;;;;;;;8.89;100.00;102033.50;5038839;28;20044;-77
2022/01/01 01:40:26;;;;;;;48.88;16.63;;;;;;;8.77;100.00;102022.03;5070083;28;20040;-78
2022/01/01 01:42:52;;;;;;;45.92;17.25;;;;;;;8.85;100.00;102032.84;5056249;28;20025;-79
2022/01/01 01:45:19;;;;;;;44.67;16.60;;;;;;;8.83;100.00;102037.38;5053780;28;20477;-79
2022/01/01 01:47:46;;;;;;;39.53;20.45;;;;;;;8.77;100.00;102041.28;5069565;28;20038;-77
2022/01/01 01:50:14;;;;;;;44.22;21.02;;;;;;;8.57;100.00;102018.19;5052637;28;20051;-79
2022/01/01 01:52:43;;;;;;;37.67;14.50;;;;;;;8.75;100.00;102037.09;5071250;28;20060;-77
2022/01/01 01:55:11;;;;;;;47.90;20.10;;;;;;;8.76;100.00;102044.06;5069658;28;20032;-77
2022/01/01 01:57:42;;;;;;;44.55;18.35;;;;;;;8.72;100.00;102043.41;5069192;28;20039;-77
2022/01/01 02:00:17;;;;;;;;;;;;;;;8.74;100.00;102046.78;5064263;28;20051;-78
2022/01/01 02:02:42;;;;;;;39.42;16.63;;;;;;;8.73;100.00;102066.16;5050622;28;20003;-78
2022/01/01 02:05:08;;;;;;;42.05;18.55;;;;;;;8.70;100.00;102060.28;5064428;28;20111;-79
2022/01/01 02:07:33;;;;;;;39.72;15.32;;;;;;;8.71;100.00;102062.81;5033895;28;20029;-77
2022/01/01 02:09:59;;;;;;;36.55;16.60;;;;;;;8.63;100.00;102047.53;5049655;28;20086;-77
2022/01/01 02:12:24;;;;;;;40.50;16.42;;;;;;;8.69;100.00;102062.06;5061630;28;20408;-77
2022/01/01 02:17:25;;;;;;;47.60;13.57;;;;;;;8.53;100.00;102041.22;5070477;28;20028;-79
2022/01/01 02:19:59;;;;;;;38.72;13.60;;;;;;;8.66;100.00;102075.44;5033580;28;20036;-79
2022/01/01 02:22:47;;;;;;;48.65;14.85;;;;;;;8.62;100.00;102064.28;5069190;28;20036;-77
2022/01/01 02:25:14;;;;;;;38.38;15.85;;;;;;;8.59;100.00;102080.28;5067429;28;20028;-79
2022/01/01 02:27:40;;;;;;;52.33;16.70;;;;;;;8.50;100.00;102070.41;5066110;28;20024;-77
2022/01/01 02:30:08;;;;;;;54.45;18.20;;;;;;;8.57;100.00;102083.97;5036182;28;20041;-77
2022/01/01 02:32:34;;;;;;;38.95;17.90;;;;;;;8.33;100.00;102063.63;5070032;28;20054;-77
2022/01/01 02:34:59;;;;;;;53.25;19.10;;;;;;;8.53;100.00;102095.66;5051068;28;20020;-77
2022/01/01 02:37:25;;;;;;;38.33;16.77;;;;;;;8.56;100.00;102098.09;5056367;28;20029;-78
2022/01/01 02:39:50;;;;;;;44.90;17.50;;;;;;;8.50;100.00;102086.19;5036176;28;20040;-77
2022/01/01 02:42:20;;;;;;;50.22;17.77;;;;;;;8.53;100.00;102096.47;5066169;28;20522;-77
2022/01/01 02:44:46;;;;;;;44.53;15.50;;;;;;;8.67;100.00;102094.69;5053739;28;20059;-77
2022/01/01 02:47:11;;;;;;;41.85;16.40;;;;;;;8.78;100.00;102100.91;5065399;28;20445;-79
2022/01/01 02:49:37;;;;;;;39.75;16.02;;;;;;;8.84;100.00;102111.00;5054587;28;20083;-77
2022/01/01 02:52:03;;;;;;;44.08;16.60;;;;;;;8.89;100.00;102105.41;5056442;28;20391;-79
2022/01/01 02:54:28;;;;;;;35.30;16.05;;;;;;;8.95;100.00;102110.25;5069550;28;20051;-77
2022/01/01 02:56:53;;;;;;;56.50;19.67;;;;;;;8.85;100.00;102080.25;5055696;28;20028;-77
2022/01/01 02:59:19;;;;;;;59.00;19.27;;;;;;;8.98;100.00;102098.66;5039211;28;20043;-79
2022/01/01 03:01:44;;;;;;;51.60;19.45;;;;;;;8.97;100.00;102089.06;5040197;28;20492;-79
2022/01/01 03:04:10;;;;;;;60.92;21.65;;;;;;;9.13;100.00;102104.63;5056084;28;20085;-77
2022/01/01 03:06:35;;;;;;;61.75;23.40;;;;;;;9.16;100.00;102099.13;5054938;28;20065;-77
2022/01/01 03:09:01;;;;;;;62.20;22.75;;;;;;;9.03;100.00;102076.28;5051059;28;20072;-79
2022/01/01 03:11:26;;;;;;;67.75;23.05;;;;;;;9.20;100.00;102100.59;5024830;28;20031;-77
2022/01/01 03:13:51;;;;;;;70.05;24.50;;;;;;;9.21;100.00;102107.53;5075303;28;20364;-77
2022/01/01 03:16:17;;;;;;;61.38;25.00;;;;;;;9.06;100.00;102077.88;5055948;28;20040;-79
2022/01/01 03:18:42;;;;;;;67.20;26.08;;;;;;;9.13;100.00;102086.19;5071481;28;20400;-77
2022/01/01 03:21:08;;;;;;;64.03;26.67;;;;;;;9.22;100.00;102119.75;5023941;28;20116;-77
2022/01/01 03:23:34;;;;;;;52.15;22.15;;;;;;;9.12;100.00;102092.38;5054436;28;20032;-77
2022/01/01 03:26:00;;;;;;;68.53;22.73;;;;;;;9.29;100.00;102114.91;5072325;28;20032;-77
2022/01/01 03:28:26;;;;;;;55.13;23.40;;;;;;;9.16;100.00;102097.31;5072182;28;20024;-77
2022/01/01 03:30:51;;;;;;;61.15;24.33;;;;;;;9.19;100.00;102106.78;5058224;28;20623;-77
2022/01/01 03:33:17;;;;;;;59.00;20.88;;;;;;;9.21;100.00;102107.53;5068197;28;20071;-77
2022/01/01 03:35:42;;;;;;;49.25;19.17;;;;;;;9.33;100.00;102133.00;5022097;28;20062;-78
2022/01/01 03:38:07;;;;;;;60.28;18.42;;;;;;;9.35;100.00;102131.09;5052398;28;20032;-79
2022/01/01 03:40:33;;;;;;;69.35;27.45;;;;;;;9.37;100.00;102129.19;5075853;28;20032;-77
2022/01/01 03:42:58;;;;;;;49.13;19.48;;;;;;;9.31;100.00;102116.47;5052830;28;20040;-78
2022/01/01 03:45:23;;;;;;;53.90;17.65;;;;;;;9.35;100.00;102130.25;5054265;28;20516;-77
2022/01/01 03:47:49;;;;;;;49.13;15.85;;;;;;;9.35;100.00;102125.81;5056015;28;20024;-77
2022/01/01 03:50:14;;;;;;;54.15;17.50;;;;;;;9.37;100.00;102131.84;5038906;28;20380;-78
2022/01/01 03:52:44;;;;;;;49.28;17.10;;;;;;;9.37;100.00;102123.94;5072169;28;20040;-77
2022/01/01 03:55:11;;;;;;;56.05;17.25;;;;;;;9.36;100.00;102116.97;5071049;28;20040;-77
2022/01/01 03:57:36;;;;;;;55.20;18.35;;;;;;;9.36;100.00;102127.50;5072424;28;20027;-78
2022/01/01 04:00:05;;;;;;;51.78;16.77;;;;;;;9.37;100.00;102133.63;5070467;28;20028;-78
2022/01/01 04:02:31;;;;;;;49.38;18.70;;;;;;;9.38;100.00;102128.22;5067776;28;20020;-77
2022/01/01 04:04:57;;;;;;;45.03;17.67;;;;;;;9.38;100.00;102125.59;5069973;28;20045;-77
2022/01/01 04:07:22;;;;;;;50.78;17.45;;;;;;;9.37;100.00;102118.66;5035138;28;20043;-78
2022/01/01 04:09:47;;;;;;;55.20;17.70;;;;;;;9.26;100.00;102105.44;5054894;28;20071;-78
2022/01/01 04:12:13;;;;;;;56.67;17.30;;;;;;;9.35;100.00;102120.56;5067549;28;20036;-78
2022/01/01 04:14:38;;;;;;;58.08;20.48;;;;;;;9.39;100.00;102116.75;5068946;28;20040;-77
2022/01/01 04:17:04;;;;;;;56.45;16.90;;;;;;;9.32;100.00;102112.88;5068809;28;20024;-77
2022/01/01 04:19:39;;;;;;;46.00;19.27;;;;;;;9.42;100.00;102116.53;5053598;28;20066;-77
2022/01/01 04:22:15;;;;;;;53.65;19.77;;;;;;;9.23;100.00;102084.56;5050521;28;20036;-79
2022/01/01 04:24:41;;;;;;;60.65;18.65;;;;;;;9.31;100.00;102087.47;5065641;28;20028;-77
2022/01/01 04:27:08;;;;;;;42.60;16.55;;;;;;;9.44;100.00;102109.34;5051429;28;20446;-77
2022/01/01 04:29:33;;;;;;;47.60;16.90;;;;;;;9.41;100.00;102120.13;5048025;28;20391;-77
2022/01/01 04:32:00;;;;;;;49.78;15.38;;;;;;;9.41;100.00;102109.59;5074016;28;20016;-77
2022/01/01 04:34:26;;;;;;;51.58;17.75;;;;;;;9.35;100.00;102094.22;5052536;28;20559;-77
2022/01/01 04:37:02;;;;;;;57.70;17.60;;;;;;;9.14;100.00;102070.25;5070332;28;20040;-78
2022/01/01 04:39:28;;;;;;;46.63;16.20;;;;;;;9.17;100.00;102095.56;5055757;28;20423;-78
2022/01/01 04:41:53;;;;;;;57.15;18.20;;;;;;;9.24;100.00;102109.97;5049997;28;20024;-78
2022/01/01 04:44:19;;;;;;;51.55;18.05;;;;;;;9.21;100.00;102107.53;5065685;28;20036;-78
2022/01/01 04:46:44;;;;;;;52.95;18.95;;;;;;;9.07;100.00;102085.66;5037984;28;20063;-77
2022/01/01 04:49:10;;;;;;;69.28;16.98;;;;;;;9.02;100.00;102087.78;5021891;28;20100;-78
2022/01/01 04:51:35;;;;;;;49.50;16.15;;;;;;;9.06;100.00;102081.34;5013689;28;20063;-78
2022/01/01 04:54:02;;;;;;;45.92;17.63;;;;;;;9.18;100.00;102105.13;5013892;28;20041;-78
2022/01/01 04:56:29;;;;;;;51.22;16.00;;;;;;;9.25;100.00;102096.69;5026241;28;20021;-78
2022/01/01 04:58:56;;;;;;;51.58;17.90;;;;;;;9.23;100.00;102093.31;5028763;28;20030;-78
2022/01/01 05:01:21;;;;;;;57.83;17.08;;;;;;;9.12;100.00;102082.69;5027793;28;20029;-78
2022/01/01 05:03:47;;;;;;;42.30;17.77;;;;;;;9.21;100.00;102107.53;5029466;28;20029;-77
2022/01/01 05:06:12;;;;;;;43.38;17.55;;;;;;;9.20;100.00;102111.97;5026741;28;20521;-78
2022/01/01 05:08:38;;;;;;;57.28;18.15;;;;;;;9.07;100.00;102093.56;5028443;28;20030;-77
2022/01/01 05:11:03;;;;;;;50.13;16.95;;;;;;;9.22;100.00;102117.13;5028996;28;20107;-77
2022/01/01 05:13:29;;;;;;;54.97;19.30;;;;;;;9.06;100.00;102089.25;5031264;28;20044;-77
2022/01/01 05:15:56;;;;;;;61.22;20.50;;;;;;;9.16;100.00;102121.03;5028673;28;20033;-77
2022/01/01 05:18:22;;;;;;;49.80;17.63;;;;;;;9.20;100.00;102117.22;5028368;28;20038;-77
2022/01/01 05:20:47;;;;;;;52.25;20.38;;;;;;;9.08;100.00;102112.84;5012278;28;20124;-77
2022/01/01 05:23:13;;;;;;;54.17;19.10;;;;;;;9.25;100.00;102140.59;5032171;28;21274;-77
2022/01/01 05:25:38;;;;;;;46.85;17.52;;;;;;;9.29;100.00;102144.72;5028578;28;20100;-78
2022/01/01 05:28:04;;;;;;;50.55;17.92;;;;;;;9.35;100.00;102151.34;5027050;28;20026;-78
2022/01/01 05:30:29;;;;;;;54.05;18.45;;;;;;;9.27;100.00;102138.69;5027267;28;20034;-77
2022/01/01 05:32:55;;;;;;;44.03;18.10;;;;;;;9.27;100.00;102136.06;5029069;28;20040;-77
2022/01/01 05:35:20;;;;;;;55.75;18.90;;;;;;;9.39;100.00;102158.91;5028457;28;20041;-78
2022/01/01 05:37:45;;;;;;;51.20;20.35;;;;;;;9.30;100.00;102141.13;5027509;28;20037;-78
2022/01/01 05:40:11;;;;;;;47.15;19.70;;;;;;;9.41;100.00;102166.72;5037032;28;20531;-78
2022/01/01 05:42:37;;;;;;;55.42;19.90;;;;;;;9.33;100.00;102143.53;5031281;28;20028;-77
2022/01/01 05:45:03;;;;;;;60.65;21.00;;;;;;;9.37;100.00;102147.63;5029716;28;20033;-77
2022/01/01 05:47:28;;;;;;;55.97;21.88;;;;;;;9.34;100.00;102150.50;5029147;28;20036;-77
2022/01/01 05:49:53;;;;;;;59.50;22.60;;;;;;;9.36;100.00;102143.31;5028354;28;20048;-77
2022/01/01 05:52:19;;;;;;;54.80;21.85;;;;;;;9.51;100.00;102157.19;5026414;28;20159;-78
2022/01/01 05:54:44;;;;;;;60.45;24.75;;;;;;;9.51;100.00;102162.44;5048663;28;20052;-77
2022/01/01 05:57:09;;;;;;;59.42;24.10;;;;;;;9.55;100.00;102168.34;5048539;28;20032;-77
2022/01/01 05:59:35;;;;;;;61.20;25.10;;;;;;;9.56;100.00;102164.75;5046222;28;20636;-77
2022/01/01 06:02:00;;;;;;;57.47;25.02;;;;;;;9.43;100.00;102144.56;5051666;28;20033;-77
2022/01/01 06:04:26;;;;;;;62.75;26.58;;;;;;;9.59;100.00;102154.00;5047613;28;20423;-77
2022/01/01 06:06:51;;;;;;;57.22;23.27;;;;;;;9.54;100.00;102156.09;5048101;28;20485;-77
2022/01/01 06:09:16;;;;;;;62.20;25.23;;;;;;;9.55;100.00;102163.91;5047233;28;20064;-78
2022/01/01 06:11:42;;;;;;;62.42;25.52;;;;;;;9.56;100.00;102162.09;5035443;28;20695;-78
2022/01/01 06:14:07;;;;;;;58.28;25.10;;;;;;;9.31;100.00;102128.78;5049963;28;20043;-77
2022/01/01 06:16:33;;;;;;;64.38;25.48;;;;;;;9.54;100.00;102166.66;5012868;28;20033;-78
2022/01/01 06:18:58;;;;;;;48.65;24.95;;;;;;;9.54;100.00;102166.66;5033561;28;20032;-77
2022/01/01 06:21:23;;;;;;;56.25;23.92;;;;;;;9.56;100.00;102167.38;5033375;28;20041;-77
2022/01/01 06:23:49;;;;;;;56.90;22.95;;;;;;;9.51;100.00;102183.53;5047357;28;20065;-77
2022/01/01 06:26:15;;;;;;;53.53;20.50;;;;;;;9.49;100.00;102177.53;5046770;28;20029;-77
2022/01/01 06:28:41;;;;;;;57.92;24.02;;;;;;;9.40;100.00;102180.81;5049657;28;20083;-78
2022/01/01 06:31:06;;;;;;;54.85;20.60;;;;;;;9.32;100.00;102162.94;5047725;28;20029;-77
2022/01/01 06:33:32;;;;;;;45.42;17.92;;;;;;;9.39;100.00;102173.88;5031986;28;20037;-77
2022/01/01 06:35:57;;;;;;;50.97;19.52;;;;;;;9.36;100.00;102168.81;5049695;28;20044;-77
2022/01/01 06:38:23;;;;;;;49.35;18.30;;;;;;;9.42;100.00;102179.75;5046964;28;20115;-77
2022/01/01 06:40:49;;;;;;;47.55;17.33;;;;;;;9.27;100.00;102154.50;5031793;28;20022;-77
2022/01/01 06:43:16;;;;;;;52.25;17.40;;;;;;;9.35;100.00;102172.41;5049275;28;20369;-77
2022/01/01 06:45:42;;;;;;;53.58;18.17;;;;;;;9.28;100.00;102164.13;5045633;28;20025;-77
2022/01/01 06:48:07;;;;;;;42.05;16.50;;;;;;;9.25;100.00;102162.53;5047747;28;20029;-77
2022/01/01 06:50:34;;;;;;;50.60;17.40;;;;;;;9.22;100.00;102156.63;5051128;28;20052;-77
2022/01/01 06:52:59;;;;;;;62.33;17.95;;;;;;;9.13;100.00;102146.75;5044099;28;20059;-77
2022/01/01 06:55:25;;;;;;;63.30;19.40;;;;;;;9.36;100.00;102179.34;5048085;28;20103;-77
2022/01/01 06:57:50;;;;;;;57.78;18.75;;;;;;;9.37;100.00;102176.63;5064885;28;20036;-77
2022/01/01 07:00:16;;;;;;;67.30;19.15;;;;;;;9.16;100.00;102142.09;5066515;28;20033;-77
2022/01/01 07:02:44;;;;;;;60.30;18.30;;;;;;;9.33;100.00;102166.41;5034988;28;20195;-78
2022/01/01 07:05:11;;;;;;;55.20;17.33;;;;;;;9.36;100.00;102169.66;5067884;28;20032;-78
2022/01/01 07:07:37;;;;;;;48.95;16.75;;;;;;;9.40;100.00;102192.19;5044974;28;20052;-77
2022/01/01 07:10:04;;;;;;;46.35;16.65;;;;;;;9.45;100.00;102182.19;5064553;28;20548;-77
2022/01/01 07:12:30;;;;;;;53.88;17.70;;;;;;;9.45;100.00;102179.56;5062842;28;20047;-77
2022/01/01 07:14:55;;;;;;;75.95;21.30;;;;;;;9.43;100.00;102186.72;5057990;28;20174;-77
2022/01/01 07:17:21;;;;;;;56.40;19.00;;;;;;;9.45;100.00;102187.47;5065151;28;20055;-77
2022/01/01 07:19:46;;;;;;;57.10;18.90;;;;;;;9.44;100.00;102174.38;5031582;28;20039;-77
2022/01/01 07:22:11;;;;;;;70.07;21.02;;;;;;;9.40;100.00;102173.75;5050740;28;20111;-77
2022/01/01 07:24:37;;;;;;;57.03;18.70;;;;;;;9.21;100.00;102149.66;5067782;28;20153;-77
2022/01/01 07:27:02;;;;;;;62.08;20.52;;;;;;;9.37;100.00;102176.63;5051437;28;20036;-77
2022/01/01 07:29:28;;;;;;;53.92;18.88;;;;;;;9.41;100.00;102172.00;5069043;28;20040;-77
2022/01/01 07:31:53;;;;;;;59.55;16.70;;;;;;;9.41;100.00;102164.91;5067774;28;20040;-77
2022/01/01 07:34:20;;;;;;;49.25;18.45;;;;;;;9.29;100.00;102147.34;5070038;28;20033;-78
2022/01/01 07:36:45;;;;;;;57.50;17.77;;;;;;;9.40;100.00;102171.13;5053644;28;20036;-78
2022/01/01 07:39:11;;;;;;;58.10;17.75;;;;;;;9.26;100.00;102144.94;5066776;28;20057;-78
2022/01/01 07:41:37;;;;;;;60.40;15.35;;;;;;;9.34;100.00;102160.19;5055156;28;20043;-78
2022/01/01 07:44:02;;;;;;;56.75;15.85;;;;;;;9.40;100.00;102171.13;5069855;28;20119;-77
2022/01/01 07:46:28;;;;;;;54.17;16.40;;;;;;;9.34;100.00;102158.41;5052658;28;20048;-78
2022/01/01 07:48:53;;;;;;;63.70;15.18;;;;;;;9.45;100.00;102179.56;5045128;28;20053;-78
2022/01/01 07:51:19;;;;;;;52.55;16.00;;;;;;;9.34;100.00;102158.41;5070420;28;20037;-78
2022/01/01 07:53:44;;;;;;;60.13;17.33;;;;;;;9.31;100.00;102166.50;5053858;28;20129;-78
2022/01/01 07:56:09;;;;;;;47.40;14.35;;;;;;;9.38;100.00;102162.47;5053972;28;20025;-78
2022/01/01 07:58:35;;;;;;;42.33;16.25;;;;;;;9.30;100.00;102138.50;5070513;28;20032;-77
2022/01/01 08:01:00;;;;;;;49.15;15.65;;;;;;;9.55;100.00;102173.63;5038732;28;20051;-77
2022/01/01 08:03:26;;;;;;;58.45;16.42;;;;;;;9.55;100.00;102178.88;5052583;28;20017;-78
2022/01/01 08:05:51;;;;;;;45.15;16.10;;;;;;;9.58;100.00;102168.13;5056288;28;20036;-77
2022/01/01 08:08:16;;;;;;;44.45;15.25;;;;;;;9.61;100.00;102170.53;5052801;28;20040;-77
2022/01/01 08:10:42;;;;;;;42.70;14.93;;;;;;;9.47;100.00;102150.44;5069709;28;20523;-77
2022/01/01 08:13:09;;;;;;;40.80;15.68;;;;;;;9.65;100.00;102174.66;5054495;28;20116;-77
2022/01/01 08:15:34;;;;;;;45.20;15.35;;;;;;;9.66;100.00;102174.50;5036149;28;20032;-78
2022/01/01 08:17:59;;;;;;;43.08;16.23;;;;;;;9.70;100.00;102176.94;5071453;28;20097;-78
2022/01/01 08:20:25;;;;;;;48.83;16.52;;;;;;;9.73;100.00;102171.44;5056045;28;20031;-78
2022/01/01 08:22:50;;;;;;;68.93;16.73;;;;;;;9.77;100.00;102173.72;5052214;28;20036;-78
2022/01/01 08:25:16;;;;;;;51.08;18.13;;;;;;;9.67;100.00;102156.94;5053526;28;20031;-78
2022/01/01 08:27:42;;;;;;;64.63;18.33;;;;;;;9.71;100.00;102163.63;5069340;28;20058;-80
2022/01/01 08:30:08;;;;;;;50.95;16.75;;;;;;;9.77;100.00;102179.00;5068419;28;20039;-77
2022/01/01 08:32:33;;;;;;;51.05;16.92;;;;;;;9.59;100.00;102141.66;5036901;28;20138;-77
2022/01/01 08:34:59;;;;;;;57.22;16.95;;;;;;;9.65;100.00;102161.47;5070107;28;20120;-77
2022/01/01 08:37:24;;;;;;;50.58;17.77;;;;;;;9.74;100.00;102166.06;5018727;28;20461;-79
2022/01/01 08:39:49;;;;;;;50.78;18.52;;;;;;;9.67;100.00;102151.66;5039195;28;20028;-77
2022/01/01 08:42:15;;;;;;;58.17;18.52;;;;;;;9.82;100.00;102173.38;5069154;28;20023;-77
2022/01/01 08:44:40;;;;;;;67.88;18.48;;;;;;;9.80;100.00;102157.72;5050136;28;20050;-77
2022/01/01 08:47:06;;;;;;;61.80;20.42;;;;;;;9.87;100.00;102166.00;5052404;28;20020;-79
2022/01/01 08:49:31;;;;;;;47.42;18.48;;;;;;;9.89;100.00;102167.56;5019756;28;20052;-77
2022/01/01 08:51:57;;;;;;;57.85;19.48;;;;;;;9.95;100.00;102170.69;5048025;28;20040;-77
2022/01/01 08:54:23;;;;;;;52.03;21.45;;;;;;;9.98;100.00;102173.13;5067504;28;20107;-77
2022/01/01 08:56:48;;;;;;;57.55;19.58;;;;;;;9.85;100.00;102144.19;5051455;28;20035;-78
2022/01/01 08:59:13;;;;;;;64.68;22.55;;;;;;;9.87;100.00;102142.28;5053448;28;20044;-77
2022/01/01 09:01:40;;;;;;;61.28;22.10;;;;;;;10.02;100.00;102164.03;5068300;28;20048;-77
2022/01/01 09:04:05;;;;;;;66.18;22.00;;;;;;;9.91;100.00;102148.13;5052286;28;20098;-77
2022/01/01 09:06:32;;;;;;;66.15;23.95;;;;;;;10.03;100.00;102163.06;5051906;28;20112;-79
2022/01/01 09:08:57;;;;;;;60.20;22.40;;;;;;;10.05;100.00;102161.16;5067564;28;20684;-77
2022/01/01 09:11:23;;;;;;;58.42;21.80;;;;;;;9.97;100.00;102143.25;5068428;28;20082;-77
2022/01/01 09:13:49;;;;;;;51.70;20.30;;;;;;;9.97;100.00;102137.97;5053117;28;20036;-77
2022/01/01 09:16:17;;;;;;;46.25;18.48;;;;;;;9.99;100.00;102135.22;5032825;28;20036;-77
2022/01/01 09:18:44;;;;;;;52.78;18.35;;;;;;;10.04;100.00;102135.75;5063958;28;20083;-77
2022/01/01 09:21:10;;;;;;;62.08;21.95;;;;;;;10.16;100.00;102147.16;5034910;28;20395;-77
2022/01/01 09:23:36;;;;;;;56.75;20.33;;;;;;;10.14;100.00;102149.91;5068197;28;20058;-77
2022/01/01 09:26:02;;;;;;;54.83;19.33;;;;;;;10.18;100.00;102145.25;5067905;28;20055;-79
2022/01/01 09:28:32;;;;;;;44.28;20.25;;;;;;;10.35;100.00;102163.31;5033130;28;20051;-77
2022/01/01 09:30:59;;;;;;;53.63;15.98;;;;;;;10.21;100.00;102129.19;5066206;28;20048;-77
2022/01/01 09:33:29;;;;;;;58.33;18.95;;;;;;;10.42;100.00;102159.25;5064762;28;20032;-77
2022/01/01 09:35:59;;;;;;;46.15;18.75;;;;;;;10.33;100.00;102127.47;5065196;28;20036;-80
2022/01/01 09:38:24;;;;;;;59.40;18.80;;;;;;;10.37;100.00;102126.28;5044426;28;20040;-76
2022/01/01 09:40:54;;;;;;;45.80;18.27;;;;;;;10.53;100.00;102154.97;5036911;28;20044;-76
2022/01/01 09:43:22;;;;;;;41.08;17.45;;;;;;;10.54;100.00;102157.50;5062923;28;20027;-77
2022/01/01 09:45:50;;;;;;;42.17;18.45;;;;;;;10.54;100.00;102157.50;5064583;28;20448;-76
2022/01/01 09:48:19;;;;;;;39.65;18.92;;;;;;;10.57;100.00;102151.97;5061891;28;20020;-76
2022/01/01 09:50:47;;;;;;;51.17;19.25;;;;;;;10.61;100.00;102158.69;5062749;28;20448;-76
2022/01/01 09:53:12;;;;;;;44.88;19.50;;;;;;;10.50;100.00;102135.75;5045373;28;20036;-76
2022/01/01 09:55:38;;;;;;;53.40;21.15;;;;;;;10.67;100.00;102157.41;5066121;28;20090;-76
2022/01/01 09:58:03;;;;;;;37.58;18.08;;;;;;;10.63;100.00;102138.28;5046276;28;20043;-76
2022/01/01 10:00:29;;;;;;;34.78;18.35;;;;;;;10.77;100.00;102150.41;5029574;28;20032;-76
2022/01/01 10:02:55;;;;;;;42.45;19.70;;;;;;;10.72;100.00;102128.00;5065418;28;20052;-76
2022/01/01 10:05:21;;;;;;;49.10;20.33;;;;;;;10.81;100.00;102130.75;5044538;28;20056;-76
2022/01/01 10:07:46;;;;;;;39.88;18.15;;;;;;;10.84;100.00;102121.72;5050159;28;20097;-76
2022/01/01 10:10:25;;;;;;;35.00;18.45;;;;;;;10.96;100.00;102130.50;5016726;28;20047;-76
2022/01/01 10:12:52;;;;;;;34.83;15.77;;;;;;;11.00;100.00;102122.22;5045254;28;20033;-76
2022/01/01 10:15:18;;;;;;;38.28;17.77;;;;;;;10.93;100.00;102118.38;5047108;28;20032;-76
2022/01/01 10:17:46;;;;;;;41.42;18.50;;;;;;;11.03;100.00;102135.16;5063905;28;20388;-75
2022/01/01 10:20:12;;;;;;;35.08;16.30;;;;;;;11.03;100.00;102121.97;5065053;28;20808;-75
2022/01/01 10:22:38;;;;;;;40.15;16.77;;;;;;;11.00;100.00;102100.25;5067441;28;20039;-75
2022/01/01 10:28:02;;;;;;;32.40;17.42;;;;;;;11.12;100.00;102115.94;5066391;28;20109;-75
2022/01/01 10:30:40;;;;;;;33.25;15.57;;;;;;;11.21;100.00;102126.75;5045795;28;20038;-75
2022/01/01 10:33:16;;;;;;;27.90;15.98;;;;;;;11.28;100.00;102130.59;5050296;28;20033;-75
2022/01/01 10:35:56;;;;;;;37.22;16.25;;;;;;;11.10;100.00;102086.19;5063192;28;20533;-75
2022/01/01 10:38:27;;;;;;;27.33;14.90;;;;;;;11.33;100.00;102121.31;5046981;28;20032;-75
2022/01/01 10:40:54;;;;;;;30.90;14.88;;;;;;;11.38;100.00;102125.38;5048664;28;20056;-76
2022/01/01 10:43:21;;;;;;;29.52;14.70;;;;;;;11.39;100.00;102121.78;5065024;28;20028;-75
2022/01/01 10:45:48;;;;;;;29.85;15.32;;;;;;;11.40;100.00;102124.28;5061964;28;20079;-75
2022/01/01 10:48:39;;;;;;;32.28;14.73;;;;;;;11.40;100.00;102116.38;5047631;28;20093;-76
2022/01/01 10:51:07;;;;;;;;;;;;;;;11.46;100.00;102126.44;5050038;28;20123;-76
2022/01/01 10:53:34;;;;;;;25.98;14.20;;;;;;;11.42;100.00;102114.44;5047973;28;20298;-76
2022/01/01 10:56:01;;;;;;;29.52;13.65;;;;;;;11.46;100.00;102112.41;5052478;28;20430;-76
2022/01/01 10:58:34;;;;;;;21.88;11.43;;;;;;;11.27;100.00;102092.72;5047266;28;20120;-76
2022/01/01 11:01:09;;;;;;;28.75;11.73;;;;;;;11.36;100.00;102101.72;5061455;28;20373;-76
2022/01/01 11:03:41;;;;;;;33.65;13.60;;;;;;;11.56;100.00;102138.91;5044948;28;20044;-76
2022/01/01 11:06:12;;;;;;;25.77;11.90;;;;;;;11.33;100.00;102096.69;5046405;28;20098;-76
2022/01/01 11:08:41;;;;;;;24.98;11.90;;;;;;;11.45;100.00;102110.69;5064789;28;20028;-76
2022/01/01 11:11:07;;;;;;;22.30;10.85;;;;;;;11.49;100.00;102112.97;5048465;28;20483;-76